sensor_id;sensor_type;location;lat;lon;timestamp;temperature;humidity
2625;DHT22;1322;53.256;10.386;2023-10-19T00:00:40;8.40;99.90
2625;DHT22;1322;53.256;10.386;2023-10-19T00:03:06;8.40;99.90
2625;DHT22;1322;53.256;10.386;2023-10-19T00:05:32;8.40;99.90
2625;DHT22;1322;53.256;10.386;2023-10-19T00:07:59;8.40;99.90
2625;DHT22;1322;53.256;10.386;2023-10-19T00:10:26;8.40;99.90
2625;DHT22;1322;53.256;10.386;2023-10-19T00:13:00;8.40;99.90
2625;DHT22;1322;53.256;10.386;2023-10-19T00:15:30;8.40;99.90
2625;DHT22;1322;53.256;10.386;2023-10-19T00:17:58;8.40;99.90
2625;DHT22;1322;53.256;10.386;2023-10-19T00:20:31;8.40;99.90
2625;DHT22;1322;53.256;10.386;2023-10-19T00:23:16;8.40;99.90
2625;DHT22;1322;53.256;10.386;2023-10-19T00:25:55;8.50;99.90
2625;DHT22;1322;53.256;10.386;2023-10-19T00:28:20;8.40;99.90
2625;DHT22;1322;53.256;10.386;2023-10-19T00:30:48;8.50;99.90
2625;DHT22;1322;53.256;10.386;2023-10-19T00:33:15;8.40;99.90
2625;DHT22;1322;53.256;10.386;2023-10-19T00:35:46;8.40;99.90
2625;DHT22;1322;53.256;10.386;2023-10-19T00:38:31;8.50;99.90
2625;DHT22;1322;53.256;10.386;2023-10-19T00:41:04;8.50;99.90
2625;DHT22;1322;53.256;10.386;2023-10-19T00:43:42;8.50;99.90
2625;DHT22;1322;53.256;10.386;2023-10-19T00:46:26;8.60;99.90
2625;DHT22;1322;53.256;10.386;2023-10-19T00:49:03;8.50;99.90
2625;DHT22;1322;53.256;10.386;2023-10-19T00:51:37;8.50;99.90
2625;DHT22;1322;53.256;10.386;2023-10-19T00:54:14;8.50;99.90
2625;DHT22;1322;53.256;10.386;2023-10-19T00:56:47;8.50;99.90
2625;DHT22;1322;53.256;10.386;2023-10-19T00:59:19;8.50;99.90
2625;DHT22;1322;53.256;10.386;2023-10-19T01:01:53;8.40;99.90
2625;DHT22;1322;53.256;10.386;2023-10-19T01:04:37;8.50;99.90
2625;DHT22;1322;53.256;10.386;2023-10-19T01:07:08;8.50;99.90
2625;DHT22;1322;53.256;10.386;2023-10-19T01:09:42;8.50;99.90
2625;DHT22;1322;53.256;10.386;2023-10-19T01:12:09;8.50;99.90
2625;DHT22;1322;53.256;10.386;2023-10-19T01:15:11;8.50;99.90
2625;DHT22;1322;53.256;10.386;2023-10-19T01:17:48;8.60;99.90
2625;DHT22;1322;53.256;10.386;2023-10-19T01:20:20;8.50;99.90
2625;DHT22;1322;53.256;10.386;2023-10-19T01:23:01;8.60;99.90
2625;DHT22;1322;53.256;10.386;2023-10-19T01:28:25;8.60;99.90
2625;DHT22;1322;53.256;10.386;2023-10-19T01:30:54;8.60;99.90
2625;DHT22;1322;53.256;10.386;2023-10-19T01:33:21;8.60;99.90
2625;DHT22;1322;53.256;10.386;2023-10-19T01:35:48;8.60;99.90
2625;DHT22;1322;53.256;10.386;2023-10-19T01:38:32;8.60;99.90
2625;DHT22;1322;53.256;10.386;2023-10-19T01:40:59;8.60;99.90
2625;DHT22;1322;53.256;10.386;2023-10-19T01:43:28;8.60;99.90
2625;DHT22;1322;53.256;10.386;2023-10-19T01:45:57;8.50;99.90
2625;DHT22;1322;53.256;10.386;2023-10-19T01:48:23;8.50;99.90
2625;DHT22;1322;53.256;10.386;2023-10-19T01:50:59;8.60;99.90
2625;DHT22;1322;53.256;10.386;2023-10-19T01:53:25;8.50;99.90
2625;DHT22;1322;53.256;10.386;2023-10-19T01:55:51;8.50;99.90
2625;DHT22;1322;53.256;10.386;2023-10-19T01:58:24;8.50;99.90
2625;DHT22;1322;53.256;10.386;2023-10-19T02:00:55;8.60;99.90
2625;DHT22;1322;53.256;10.386;2023-10-19T02:03:26;8.60;99.90
2625;DHT22;1322;53.256;10.386;2023-10-19T02:06:01;8.70;99.90
2625;DHT22;1322;53.256;10.386;2023-10-19T02:08:35;8.70;99.90
2625;DHT22;1322;53.256;10.386;2023-10-19T02:11:05;8.70;99.90
2625;DHT22;1322;53.256;10.386;2023-10-19T02:13:39;8.70;99.90
2625;DHT22;1322;53.256;10.386;2023-10-19T02:16:05;8.60;99.90
2625;DHT22;1322;53.256;10.386;2023-10-19T02:18:32;8.70;99.90
2625;DHT22;1322;53.256;10.386;2023-10-19T02:21:00;8.60;99.90
2625;DHT22;1322;53.256;10.386;2023-10-19T02:23:32;8.70;99.90
2625;DHT22;1322;53.256;10.386;2023-10-19T02:26:00;8.60;99.90
2625;DHT22;1322;53.256;10.386;2023-10-19T02:28:25;8.70;99.90
2625;DHT22;1322;53.256;10.386;2023-10-19T02:30:56;8.60;99.90
2625;DHT22;1322;53.256;10.386;2023-10-19T02:33:22;8.60;99.90
2625;DHT22;1322;53.256;10.386;2023-10-19T02:35:48;8.50;99.90
2625;DHT22;1322;53.256;10.386;2023-10-19T02:38:13;8.40;99.90
2625;DHT22;1322;53.256;10.386;2023-10-19T02:40:39;8.40;99.90
2625;DHT22;1322;53.256;10.386;2023-10-19T02:43:05;8.40;99.90
2625;DHT22;1322;53.256;10.386;2023-10-19T02:45:31;8.40;99.90
2625;DHT22;1322;53.256;10.386;2023-10-19T02:47:58;8.30;99.90
2625;DHT22;1322;53.256;10.386;2023-10-19T02:50:24;8.20;99.90
2625;DHT22;1322;53.256;10.386;2023-10-19T02:52:52;8.20;99.90
2625;DHT22;1322;53.256;10.386;2023-10-19T02:55:21;8.20;99.90
2625;DHT22;1322;53.256;10.386;2023-10-19T02:57:50;8.10;99.90
2625;DHT22;1322;53.256;10.386;2023-10-19T03:00:16;8.20;99.90
2625;DHT22;1322;53.256;10.386;2023-10-19T03:02:46;8.10;99.90
2625;DHT22;1322;53.256;10.386;2023-10-19T03:05:12;8.10;99.90
2625;DHT22;1322;53.256;10.386;2023-10-19T03:07:41;8.00;99.90
2625;DHT22;1322;53.256;10.386;2023-10-19T03:10:09;8.00;99.90
2625;DHT22;1322;53.256;10.386;2023-10-19T03:13:00;8.00;99.90
2625;DHT22;1322;53.256;10.386;2023-10-19T03:15:27;8.00;99.90
2625;DHT22;1322;53.256;10.386;2023-10-19T03:17:55;7.90;99.90
2625;DHT22;1322;53.256;10.386;2023-10-19T03:20:21;7.90;99.90
2625;DHT22;1322;53.256;10.386;2023-10-19T03:22:51;7.90;99.90
2625;DHT22;1322;53.256;10.386;2023-10-19T03:25:16;7.90;99.90
2625;DHT22;1322;53.256;10.386;2023-10-19T03:28:01;7.90;99.90
2625;DHT22;1322;53.256;10.386;2023-10-19T03:30:37;7.90;99.90
2625;DHT22;1322;53.256;10.386;2023-10-19T03:33:06;7.90;99.90
2625;DHT22;1322;53.256;10.386;2023-10-19T03:35:37;7.80;99.90
2625;DHT22;1322;53.256;10.386;2023-10-19T03:38:04;7.80;99.90
2625;DHT22;1322;53.256;10.386;2023-10-19T03:40:40;7.60;99.90
2625;DHT22;1322;53.256;10.386;2023-10-19T03:43:05;7.60;99.90
2625;DHT22;1322;53.256;10.386;2023-10-19T03:45:42;7.60;99.90
2625;DHT22;1322;53.256;10.386;2023-10-19T03:48:14;7.70;99.90
2625;DHT22;1322;53.256;10.386;2023-10-19T03:50:41;7.70;99.90
2625;DHT22;1322;53.256;10.386;2023-10-19T03:53:08;7.70;99.90
2625;DHT22;1322;53.256;10.386;2023-10-19T03:55:37;7.70;99.90
2625;DHT22;1322;53.256;10.386;2023-10-19T03:58:04;7.70;99.90
2625;DHT22;1322;53.256;10.386;2023-10-19T04:00:30;7.50;99.90
2625;DHT22;1322;53.256;10.386;2023-10-19T04:02:59;7.50;99.90
2625;DHT22;1322;53.256;10.386;2023-10-19T04:05:24;7.50;99.90
2625;DHT22;1322;53.256;10.386;2023-10-19T04:07:52;7.50;99.90
2625;DHT22;1322;53.256;10.386;2023-10-19T04:10:21;7.60;99.90
2625;DHT22;1322;53.256;10.386;2023-10-19T04:12:56;7.60;99.90
2625;DHT22;1322;53.256;10.386;2023-10-19T04:15:25;7.60;99.90
2625;DHT22;1322;53.256;10.386;2023-10-19T04:17:52;7.60;99.90
2625;DHT22;1322;53.256;10.386;2023-10-19T04:20:20;7.50;99.90
2625;DHT22;1322;53.256;10.386;2023-10-19T04:22:54;7.50;99.90
2625;DHT22;1322;53.256;10.386;2023-10-19T04:25:20;7.60;99.90
2625;DHT22;1322;53.256;10.386;2023-10-19T04:27:49;7.60;99.90
2625;DHT22;1322;53.256;10.386;2023-10-19T04:30:15;7.50;99.90
2625;DHT22;1322;53.256;10.386;2023-10-19T04:32:44;7.50;99.90
2625;DHT22;1322;53.256;10.386;2023-10-19T04:35:11;7.60;99.90
2625;DHT22;1322;53.256;10.386;2023-10-19T04:37:38;7.50;99.90
2625;DHT22;1322;53.256;10.386;2023-10-19T04:40:08;7.50;99.90
2625;DHT22;1322;53.256;10.386;2023-10-19T04:42:34;7.50;99.90
2625;DHT22;1322;53.256;10.386;2023-10-19T04:45:03;7.50;99.90
2625;DHT22;1322;53.256;10.386;2023-10-19T04:47:28;7.50;99.90
2625;DHT22;1322;53.256;10.386;2023-10-19T04:49:54;7.50;99.90
2625;DHT22;1322;53.256;10.386;2023-10-19T04:52:20;7.50;99.90
2625;DHT22;1322;53.256;10.386;2023-10-19T04:54:46;7.30;99.90
2625;DHT22;1322;53.256;10.386;2023-10-19T04:57:12;7.30;99.90
2625;DHT22;1322;53.256;10.386;2023-10-19T04:59:37;7.30;99.90
2625;DHT22;1322;53.256;10.386;2023-10-19T05:02:03;7.30;99.90
2625;DHT22;1322;53.256;10.386;2023-10-19T05:04:31;7.30;99.90
2625;DHT22;1322;53.256;10.386;2023-10-19T05:06:56;7.20;99.90
2625;DHT22;1322;53.256;10.386;2023-10-19T05:09:22;7.20;99.90
2625;DHT22;1322;53.256;10.386;2023-10-19T05:11:48;7.20;99.90
2625;DHT22;1322;53.256;10.386;2023-10-19T05:14:13;7.20;99.90
2625;DHT22;1322;53.256;10.386;2023-10-19T05:16:40;7.30;99.90
2625;DHT22;1322;53.256;10.386;2023-10-19T05:19:08;7.30;99.90
2625;DHT22;1322;53.256;10.386;2023-10-19T05:21:35;7.30;99.90
2625;DHT22;1322;53.256;10.386;2023-10-19T05:24:00;7.20;99.90
2625;DHT22;1322;53.256;10.386;2023-10-19T05:26:26;7.20;99.90
2625;DHT22;1322;53.256;10.386;2023-10-19T05:28:52;7.20;99.90
2625;DHT22;1322;53.256;10.386;2023-10-19T05:31:20;7.10;99.90
2625;DHT22;1322;53.256;10.386;2023-10-19T05:33:51;7.10;99.90
2625;DHT22;1322;53.256;10.386;2023-10-19T05:36:18;7.00;99.90
2625;DHT22;1322;53.256;10.386;2023-10-19T05:38:44;7.10;99.90
2625;DHT22;1322;53.256;10.386;2023-10-19T05:41:10;7.10;99.90
2625;DHT22;1322;53.256;10.386;2023-10-19T05:43:37;7.10;99.90
2625;DHT22;1322;53.256;10.386;2023-10-19T05:46:03;7.10;99.90
2625;DHT22;1322;53.256;10.386;2023-10-19T05:48:28;7.10;99.90
2625;DHT22;1322;53.256;10.386;2023-10-19T05:50:54;7.10;99.90
2625;DHT22;1322;53.256;10.386;2023-10-19T05:53:20;7.10;99.90
2625;DHT22;1322;53.256;10.386;2023-10-19T05:55:51;7.00;99.90
2625;DHT22;1322;53.256;10.386;2023-10-19T05:58:16;7.10;99.90
2625;DHT22;1322;53.256;10.386;2023-10-19T06:00:42;7.10;99.90
2625;DHT22;1322;53.256;10.386;2023-10-19T06:03:08;7.10;99.90
2625;DHT22;1322;53.256;10.386;2023-10-19T06:05:33;7.10;99.90
2625;DHT22;1322;53.256;10.386;2023-10-19T06:07:59;7.10;99.90
2625;DHT22;1322;53.256;10.386;2023-10-19T06:10:27;7.20;99.90
2625;DHT22;1322;53.256;10.386;2023-10-19T06:12:53;7.20;99.90
2625;DHT22;1322;53.256;10.386;2023-10-19T06:15:21;7.30;99.90
2625;DHT22;1322;53.256;10.386;2023-10-19T06:17:48;7.30;99.90
2625;DHT22;1322;53.256;10.386;2023-10-19T06:20:15;7.30;99.90
2625;DHT22;1322;53.256;10.386;2023-10-19T06:22:53;7.20;99.90
2625;DHT22;1322;53.256;10.386;2023-10-19T06:25:20;7.20;99.90
2625;DHT22;1322;53.256;10.386;2023-10-19T06:27:47;7.20;99.90
2625;DHT22;1322;53.256;10.386;2023-10-19T06:30:14;7.30;99.90
2625;DHT22;1322;53.256;10.386;2023-10-19T06:32:46;7.40;99.90
2625;DHT22;1322;53.256;10.386;2023-10-19T06:35:12;7.40;99.90
2625;DHT22;1322;53.256;10.386;2023-10-19T06:37:38;7.30;99.90
2625;DHT22;1322;53.256;10.386;2023-10-19T06:40:04;7.30;99.90
2625;DHT22;1322;53.256;10.386;2023-10-19T06:42:31;7.30;99.90
2625;DHT22;1322;53.256;10.386;2023-10-19T06:44:57;7.20;99.90
2625;DHT22;1322;53.256;10.386;2023-10-19T06:47:23;7.30;99.90
2625;DHT22;1322;53.256;10.386;2023-10-19T06:49:49;7.40;99.90
2625;DHT22;1322;53.256;10.386;2023-10-19T06:52:15;7.40;99.90
2625;DHT22;1322;53.256;10.386;2023-10-19T06:54:41;7.40;99.90
2625;DHT22;1322;53.256;10.386;2023-10-19T06:57:07;7.50;99.90
2625;DHT22;1322;53.256;10.386;2023-10-19T06:59:35;7.50;99.90
2625;DHT22;1322;53.256;10.386;2023-10-19T07:02:01;7.50;99.90
2625;DHT22;1322;53.256;10.386;2023-10-19T07:04:29;7.50;99.90
2625;DHT22;1322;53.256;10.386;2023-10-19T07:06:55;7.60;99.90
2625;DHT22;1322;53.256;10.386;2023-10-19T07:09:20;7.60;99.90
2625;DHT22;1322;53.256;10.386;2023-10-19T07:11:47;7.50;99.90
2625;DHT22;1322;53.256;10.386;2023-10-19T07:14:13;7.60;99.90
2625;DHT22;1322;53.256;10.386;2023-10-19T07:16:40;7.60;99.90
2625;DHT22;1322;53.256;10.386;2023-10-19T07:19:06;7.50;99.90
2625;DHT22;1322;53.256;10.386;2023-10-19T07:21:31;7.60;99.90
2625;DHT22;1322;53.256;10.386;2023-10-19T07:24:01;7.50;99.90
2625;DHT22;1322;53.256;10.386;2023-10-19T07:26:31;7.60;99.90
2625;DHT22;1322;53.256;10.386;2023-10-19T07:28:59;7.60;99.90
2625;DHT22;1322;53.256;10.386;2023-10-19T07:31:25;7.70;99.90
2625;DHT22;1322;53.256;10.386;2023-10-19T07:33:53;7.60;99.90
2625;DHT22;1322;53.256;10.386;2023-10-19T07:36:21;7.50;99.90
2625;DHT22;1322;53.256;10.386;2023-10-19T07:38:48;7.50;99.90
2625;DHT22;1322;53.256;10.386;2023-10-19T07:41:13;7.50;99.90
2625;DHT22;1322;53.256;10.386;2023-10-19T07:43:39;7.60;99.90
2625;DHT22;1322;53.256;10.386;2023-10-19T07:46:05;7.60;99.90
2625;DHT22;1322;53.256;10.386;2023-10-19T07:48:30;7.60;99.90
2625;DHT22;1322;53.256;10.386;2023-10-19T07:50:57;7.60;99.90
2625;DHT22;1322;53.256;10.386;2023-10-19T07:53:24;7.70;99.90
2625;DHT22;1322;53.256;10.386;2023-10-19T07:55:51;7.70;99.90
2625;DHT22;1322;53.256;10.386;2023-10-19T07:58:17;7.80;99.90
2625;DHT22;1322;53.256;10.386;2023-10-19T08:00:43;7.70;99.90
2625;DHT22;1322;53.256;10.386;2023-10-19T08:03:12;7.70;99.90
2625;DHT22;1322;53.256;10.386;2023-10-19T08:05:41;7.70;99.90
2625;DHT22;1322;53.256;10.386;2023-10-19T08:08:06;7.70;99.90
2625;DHT22;1322;53.256;10.386;2023-10-19T08:10:32;7.80;99.90
2625;DHT22;1322;53.256;10.386;2023-10-19T08:13:00;7.80;99.90
2625;DHT22;1322;53.256;10.386;2023-10-19T08:15:26;7.90;99.90
2625;DHT22;1322;53.256;10.386;2023-10-19T08:17:54;7.80;99.90
2625;DHT22;1322;53.256;10.386;2023-10-19T08:20:20;7.80;99.90
2625;DHT22;1322;53.256;10.386;2023-10-19T08:22:54;7.80;99.90
2625;DHT22;1322;53.256;10.386;2023-10-19T08:25:22;7.90;99.90
2625;DHT22;1322;53.256;10.386;2023-10-19T08:27:48;7.80;99.90
2625;DHT22;1322;53.256;10.386;2023-10-19T08:30:19;7.80;99.90
2625;DHT22;1322;53.256;10.386;2023-10-19T08:32:47;7.90;99.90
2625;DHT22;1322;53.256;10.386;2023-10-19T08:35:18;7.90;99.90
2625;DHT22;1322;53.256;10.386;2023-10-19T08:37:46;8.00;99.90
2625;DHT22;1322;53.256;10.386;2023-10-19T08:40:13;8.00;99.90
2625;DHT22;1322;53.256;10.386;2023-10-19T08:42:41;8.00;99.90
2625;DHT22;1322;53.256;10.386;2023-10-19T08:45:08;8.00;99.90
2625;DHT22;1322;53.256;10.386;2023-10-19T08:47:37;8.00;99.90
2625;DHT22;1322;53.256;10.386;2023-10-19T08:50:06;8.00;99.90
2625;DHT22;1322;53.256;10.386;2023-10-19T08:52:34;8.00;99.90
2625;DHT22;1322;53.256;10.386;2023-10-19T08:55:00;7.90;99.90
2625;DHT22;1322;53.256;10.386;2023-10-19T08:57:26;7.90;99.90
2625;DHT22;1322;53.256;10.386;2023-10-19T08:59:54;7.70;99.90
2625;DHT22;1322;53.256;10.386;2023-10-19T09:02:23;7.80;99.90
2625;DHT22;1322;53.256;10.386;2023-10-19T09:04:49;7.70;99.90
2625;DHT22;1322;53.256;10.386;2023-10-19T09:07:16;7.70;99.90
2625;DHT22;1322;53.256;10.386;2023-10-19T09:09:43;7.60;99.90
2625;DHT22;1322;53.256;10.386;2023-10-19T09:12:12;7.60;99.90
2625;DHT22;1322;53.256;10.386;2023-10-19T09:14:38;7.70;99.90
2625;DHT22;1322;53.256;10.386;2023-10-19T09:17:09;7.80;99.90
2625;DHT22;1322;53.256;10.386;2023-10-19T09:19:37;7.70;99.90
2625;DHT22;1322;53.256;10.386;2023-10-19T09:22:03;7.70;99.90
2625;DHT22;1322;53.256;10.386;2023-10-19T09:24:48;7.70;99.90
2625;DHT22;1322;53.256;10.386;2023-10-19T09:27:17;7.60;99.90
2625;DHT22;1322;53.256;10.386;2023-10-19T09:29:43;7.70;99.90
2625;DHT22;1322;53.256;10.386;2023-10-19T09:32:09;7.60;99.90
2625;DHT22;1322;53.256;10.386;2023-10-19T09:34:36;7.70;99.90
2625;DHT22;1322;53.256;10.386;2023-10-19T09:37:02;7.80;99.90
2625;DHT22;1322;53.256;10.386;2023-10-19T09:39:29;7.80;99.90
2625;DHT22;1322;53.256;10.386;2023-10-19T09:42:06;7.70;99.90
2625;DHT22;1322;53.256;10.386;2023-10-19T09:44:57;7.60;99.90
2625;DHT22;1322;53.256;10.386;2023-10-19T09:49:51;7.70;99.90
2625;DHT22;1322;53.256;10.386;2023-10-19T09:52:17;7.70;99.90
2625;DHT22;1322;53.256;10.386;2023-10-19T09:54:52;7.80;99.90
2625;DHT22;1322;53.256;10.386;2023-10-19T09:57:36;7.70;99.90
2625;DHT22;1322;53.256;10.386;2023-10-19T10:00:05;7.60;99.90
2625;DHT22;1322;53.256;10.386;2023-10-19T10:02:44;7.70;99.90
2625;DHT22;1322;53.256;10.386;2023-10-19T10:05:52;7.80;99.90
2625;DHT22;1322;53.256;10.386;2023-10-19T10:10:49;7.90;99.90
2625;DHT22;1322;53.256;10.386;2023-10-19T10:15:56;7.80;99.90
2625;DHT22;1322;53.256;10.386;2023-10-19T10:18:31;7.70;99.90
2625;DHT22;1322;53.256;10.386;2023-10-19T10:21:14;7.90;99.90
2625;DHT22;1322;53.256;10.386;2023-10-19T10:24:00;7.90;99.90
2625;DHT22;1322;53.256;10.386;2023-10-19T10:26:29;7.80;99.90
2625;DHT22;1322;53.256;10.386;2023-10-19T10:29:22;7.80;99.90
2625;DHT22;1322;53.256;10.386;2023-10-19T10:31:52;7.70;99.90
2625;DHT22;1322;53.256;10.386;2023-10-19T10:37:03;7.90;99.90
2625;DHT22;1322;53.256;10.386;2023-10-19T10:39:30;7.90;99.90
2625;DHT22;1322;53.256;10.386;2023-10-19T10:42:01;7.80;99.90
2625;DHT22;1322;53.256;10.386;2023-10-19T10:44:38;8.00;99.90
2625;DHT22;1322;53.256;10.386;2023-10-19T10:47:18;7.90;99.90
2625;DHT22;1322;53.256;10.386;2023-10-19T10:52:29;8.00;99.90
2625;DHT22;1322;53.256;10.386;2023-10-19T10:54:56;8.10;99.90
2625;DHT22;1322;53.256;10.386;2023-10-19T10:57:22;8.20;99.90
2625;DHT22;1322;53.256;10.386;2023-10-19T11:00:01;8.20;99.90
2625;DHT22;1322;53.256;10.386;2023-10-19T11:02:29;7.90;99.90
2625;DHT22;1322;53.256;10.386;2023-10-19T11:04:54;7.80;99.90
2625;DHT22;1322;53.256;10.386;2023-10-19T11:07:21;7.90;99.90
2625;DHT22;1322;53.256;10.386;2023-10-19T11:09:47;7.90;99.90
2625;DHT22;1322;53.256;10.386;2023-10-19T11:12:13;7.90;99.90
2625;DHT22;1322;53.256;10.386;2023-10-19T11:15:01;7.80;99.90
2625;DHT22;1322;53.256;10.386;2023-10-19T11:17:31;7.90;99.90
2625;DHT22;1322;53.256;10.386;2023-10-19T11:19:57;8.00;99.90
2625;DHT22;1322;53.256;10.386;2023-10-19T11:22:26;8.00;99.90
2625;DHT22;1322;53.256;10.386;2023-10-19T11:24:55;8.00;99.90
2625;DHT22;1322;53.256;10.386;2023-10-19T11:27:28;8.10;99.90
2625;DHT22;1322;53.256;10.386;2023-10-19T11:29:58;8.00;99.90
2625;DHT22;1322;53.256;10.386;2023-10-19T11:32:24;7.90;99.90
2625;DHT22;1322;53.256;10.386;2023-10-19T11:34:52;7.80;99.90
2625;DHT22;1322;53.256;10.386;2023-10-19T11:37:18;7.90;99.90
2625;DHT22;1322;53.256;10.386;2023-10-19T11:39:43;7.90;99.90
2625;DHT22;1322;53.256;10.386;2023-10-19T11:42:09;7.80;99.90
2625;DHT22;1322;53.256;10.386;2023-10-19T11:44:35;7.80;99.90
2625;DHT22;1322;53.256;10.386;2023-10-19T11:47:02;7.90;99.90
2625;DHT22;1322;53.256;10.386;2023-10-19T11:49:28;8.00;99.90
2625;DHT22;1322;53.256;10.386;2023-10-19T11:51:54;7.90;99.90
2625;DHT22;1322;53.256;10.386;2023-10-19T11:54:20;7.90;99.90
2625;DHT22;1322;53.256;10.386;2023-10-19T11:56:46;7.90;99.90
2625;DHT22;1322;53.256;10.386;2023-10-19T11:59:11;7.80;99.90
2625;DHT22;1322;53.256;10.386;2023-10-19T12:01:38;7.80;99.90
2625;DHT22;1322;53.256;10.386;2023-10-19T12:04:04;7.80;99.90
2625;DHT22;1322;53.256;10.386;2023-10-19T12:06:31;7.80;99.90
2625;DHT22;1322;53.256;10.386;2023-10-19T12:08:57;7.80;99.90
2625;DHT22;1322;53.256;10.386;2023-10-19T12:11:25;7.80;99.90
2625;DHT22;1322;53.256;10.386;2023-10-19T12:13:50;7.80;99.90
2625;DHT22;1322;53.256;10.386;2023-10-19T12:16:16;7.70;99.90
2625;DHT22;1322;53.256;10.386;2023-10-19T12:18:42;7.80;99.90
2625;DHT22;1322;53.256;10.386;2023-10-19T12:21:09;7.70;99.90
2625;DHT22;1322;53.256;10.386;2023-10-19T12:23:41;7.90;99.90
2625;DHT22;1322;53.256;10.386;2023-10-19T12:26:08;7.80;99.90
2625;DHT22;1322;53.256;10.386;2023-10-19T12:28:38;7.80;99.90
2625;DHT22;1322;53.256;10.386;2023-10-19T12:31:04;7.80;99.90
2625;DHT22;1322;53.256;10.386;2023-10-19T12:33:37;7.90;99.90
2625;DHT22;1322;53.256;10.386;2023-10-19T12:36:04;7.80;99.90
2625;DHT22;1322;53.256;10.386;2023-10-19T12:38:49;7.80;99.90
2625;DHT22;1322;53.256;10.386;2023-10-19T12:41:19;7.90;99.90
2625;DHT22;1322;53.256;10.386;2023-10-19T12:43:45;7.80;99.90
2625;DHT22;1322;53.256;10.386;2023-10-19T12:46:14;7.80;99.90
2625;DHT22;1322;53.256;10.386;2023-10-19T12:48:41;7.80;99.90
2625;DHT22;1322;53.256;10.386;2023-10-19T12:51:07;7.80;99.90
2625;DHT22;1322;53.256;10.386;2023-10-19T12:53:34;7.90;99.90
2625;DHT22;1322;53.256;10.386;2023-10-19T12:56:00;7.80;99.90
2625;DHT22;1322;53.256;10.386;2023-10-19T12:58:26;7.80;99.90
2625;DHT22;1322;53.256;10.386;2023-10-19T13:00:53;7.80;99.90
2625;DHT22;1322;53.256;10.386;2023-10-19T13:03:20;7.70;99.90
2625;DHT22;1322;53.256;10.386;2023-10-19T13:05:47;7.70;99.90
2625;DHT22;1322;53.256;10.386;2023-10-19T13:08:15;7.80;99.90
2625;DHT22;1322;53.256;10.386;2023-10-19T13:10:43;7.70;99.90
2625;DHT22;1322;53.256;10.386;2023-10-19T13:13:10;7.90;99.90
2625;DHT22;1322;53.256;10.386;2023-10-19T13:15:42;7.80;99.90
2625;DHT22;1322;53.256;10.386;2023-10-19T13:18:11;7.70;99.90
2625;DHT22;1322;53.256;10.386;2023-10-19T13:20:39;7.70;99.90
2625;DHT22;1322;53.256;10.386;2023-10-19T13:23:09;7.70;99.90
2625;DHT22;1322;53.256;10.386;2023-10-19T13:25:41;7.60;99.90
2625;DHT22;1322;53.256;10.386;2023-10-19T13:28:12;7.70;99.90
2625;DHT22;1322;53.256;10.386;2023-10-19T13:33:14;7.80;99.90
2625;DHT22;1322;53.256;10.386;2023-10-19T13:35:42;7.70;99.90
2625;DHT22;1322;53.256;10.386;2023-10-19T13:38:09;7.80;99.90
2625;DHT22;1322;53.256;10.386;2023-10-19T13:40:38;7.80;99.90
2625;DHT22;1322;53.256;10.386;2023-10-19T13:43:05;7.70;99.90
2625;DHT22;1322;53.256;10.386;2023-10-19T13:45:32;7.80;99.90
2625;DHT22;1322;53.256;10.386;2023-10-19T13:48:05;7.80;99.90
2625;DHT22;1322;53.256;10.386;2023-10-19T13:50:31;7.80;99.90
2625;DHT22;1322;53.256;10.386;2023-10-19T13:52:57;7.80;99.90
2625;DHT22;1322;53.256;10.386;2023-10-19T13:55:24;7.90;99.90
2625;DHT22;1322;53.256;10.386;2023-10-19T13:57:50;7.80;99.90
2625;DHT22;1322;53.256;10.386;2023-10-19T14:00:17;7.80;99.90
2625;DHT22;1322;53.256;10.386;2023-10-19T14:02:52;7.90;99.90
2625;DHT22;1322;53.256;10.386;2023-10-19T14:05:19;7.90;99.90
2625;DHT22;1322;53.256;10.386;2023-10-19T14:07:46;7.90;99.90
2625;DHT22;1322;53.256;10.386;2023-10-19T14:10:13;7.80;99.90
2625;DHT22;1322;53.256;10.386;2023-10-19T14:12:39;7.80;99.90
2625;DHT22;1322;53.256;10.386;2023-10-19T14:15:15;7.70;99.90
2625;DHT22;1322;53.256;10.386;2023-10-19T14:17:46;7.80;99.90
2625;DHT22;1322;53.256;10.386;2023-10-19T14:20:13;7.80;99.90
2625;DHT22;1322;53.256;10.386;2023-10-19T14:25:05;7.70;99.90
2625;DHT22;1322;53.256;10.386;2023-10-19T14:27:33;7.80;99.90
2625;DHT22;1322;53.256;10.386;2023-10-19T14:30:00;7.90;99.90
2625;DHT22;1322;53.256;10.386;2023-10-19T14:32:25;8.00;99.90
2625;DHT22;1322;53.256;10.386;2023-10-19T14:34:52;7.90;99.90
2625;DHT22;1322;53.256;10.386;2023-10-19T14:37:19;7.90;99.90
2625;DHT22;1322;53.256;10.386;2023-10-19T14:39:44;8.00;99.90
2625;DHT22;1322;53.256;10.386;2023-10-19T14:42:10;7.90;99.90
2625;DHT22;1322;53.256;10.386;2023-10-19T14:44:36;7.90;99.90
2625;DHT22;1322;53.256;10.386;2023-10-19T14:47:02;7.90;99.90
2625;DHT22;1322;53.256;10.386;2023-10-19T14:49:30;7.90;99.90
2625;DHT22;1322;53.256;10.386;2023-10-19T14:51:55;7.90;99.90
2625;DHT22;1322;53.256;10.386;2023-10-19T14:54:21;7.80;99.90
2625;DHT22;1322;53.256;10.386;2023-10-19T14:56:47;7.90;99.90
2625;DHT22;1322;53.256;10.386;2023-10-19T14:59:13;7.90;99.90
2625;DHT22;1322;53.256;10.386;2023-10-19T15:01:39;7.90;99.90
2625;DHT22;1322;53.256;10.386;2023-10-19T15:04:05;7.80;99.90
2625;DHT22;1322;53.256;10.386;2023-10-19T15:06:31;7.80;99.90
2625;DHT22;1322;53.256;10.386;2023-10-19T15:08:57;7.90;99.90
2625;DHT22;1322;53.256;10.386;2023-10-19T15:11:23;7.80;99.90
2625;DHT22;1322;53.256;10.386;2023-10-19T15:13:50;7.80;99.90
2625;DHT22;1322;53.256;10.386;2023-10-19T15:16:19;7.80;99.90
2625;DHT22;1322;53.256;10.386;2023-10-19T15:18:45;8.00;99.90
2625;DHT22;1322;53.256;10.386;2023-10-19T15:21:11;7.90;99.90
2625;DHT22;1322;53.256;10.386;2023-10-19T15:23:39;7.90;99.90
2625;DHT22;1322;53.256;10.386;2023-10-19T15:26:06;7.90;99.90
2625;DHT22;1322;53.256;10.386;2023-10-19T15:28:32;7.80;99.90
2625;DHT22;1322;53.256;10.386;2023-10-19T15:31:01;7.90;99.90
2625;DHT22;1322;53.256;10.386;2023-10-19T15:33:27;7.90;99.90
2625;DHT22;1322;53.256;10.386;2023-10-19T15:35:54;7.90;99.90
2625;DHT22;1322;53.256;10.386;2023-10-19T15:38:21;8.00;99.90
2625;DHT22;1322;53.256;10.386;2023-10-19T15:40:48;8.00;99.90
2625;DHT22;1322;53.256;10.386;2023-10-19T15:43:14;8.00;99.90
2625;DHT22;1322;53.256;10.386;2023-10-19T15:45:41;8.00;99.90
2625;DHT22;1322;53.256;10.386;2023-10-19T15:48:10;7.90;99.90
2625;DHT22;1322;53.256;10.386;2023-10-19T15:50:39;8.00;99.90
2625;DHT22;1322;53.256;10.386;2023-10-19T15:53:08;8.00;99.90
2625;DHT22;1322;53.256;10.386;2023-10-19T15:55:35;7.90;99.90
2625;DHT22;1322;53.256;10.386;2023-10-19T15:58:01;7.80;99.90
2625;DHT22;1322;53.256;10.386;2023-10-19T16:00:27;7.90;99.90
2625;DHT22;1322;53.256;10.386;2023-10-19T16:02:53;7.90;99.90
2625;DHT22;1322;53.256;10.386;2023-10-19T16:05:19;8.00;99.90
2625;DHT22;1322;53.256;10.386;2023-10-19T16:07:45;8.00;99.90
2625;DHT22;1322;53.256;10.386;2023-10-19T16:10:11;8.20;99.90
2625;DHT22;1322;53.256;10.386;2023-10-19T16:12:41;8.00;99.90
2625;DHT22;1322;53.256;10.386;2023-10-19T16:15:08;8.10;99.90
2625;DHT22;1322;53.256;10.386;2023-10-19T16:17:34;8.00;99.90
2625;DHT22;1322;53.256;10.386;2023-10-19T16:20:02;8.00;99.90
2625;DHT22;1322;53.256;10.386;2023-10-19T16:22:28;7.90;99.90
2625;DHT22;1322;53.256;10.386;2023-10-19T16:24:53;7.80;99.90
2625;DHT22;1322;53.256;10.386;2023-10-19T16:27:19;7.80;99.90
2625;DHT22;1322;53.256;10.386;2023-10-19T16:29:46;7.80;99.90
2625;DHT22;1322;53.256;10.386;2023-10-19T16:32:11;7.70;99.90